Terminal Aerodrome Forecast
Issued by NWS Albany, NY

Home | Current Version | Previous Version | Text Only | Print | Product List | Glossary On
Versions: 1 2 3 4 5 6 7 8 9 10 11 12 13 14 15
000
FTUS41 KALY 200500 RRA
TAFPOU
TAF
KPOU 200545Z 2006/2106 VRB03KT P6SM SCT250
     FM201000 00000KT 6SM BR SCT020 BKN250
      TEMPO 2010/2012 3SM BR BKN020
     FM201200 16004KT 5SM BR OVC020
     FM201500 18006KT P6SM SCT020 BKN045
     FM202300 VRB03KT P6SM SCT045 BKN200=

USA.gov is the U.S. government's official web portal to all federal, state and local government web resources and services.